Impacts TAF Board INFO
FOR SITUATIONAL AWARENESS. NOT TO BE USED FOR FLIGHT PLANNING PURPOSES.
IDs:

KPDX - Portland Intl Arpt, OR, US

Issued at 0300 UTC 20 Aug 2018
Updated at 0331 UTC 20 Aug 2018
Potential Impact None Slight Moderate High
Time0253Z 20/04Z 20/05Z 20/06Z 20/07Z 20/08Z 20/09Z 20/10Z 20/11Z 20/12Z 20/13Z 20/14Z 20/15Z 20/16Z>>
Type OBS PRVL PRVL PRVL PRVL PRVL PRVL PRVL PRVL PRVL PRVL PRVL PRVL PRVL
VIS 10 >6 >6 >6 >6 >6 6 6 6 6 3 3 3 3
CIG -- -- -- -- -- -- -- -- -- -- -- -- -- --
Cover SCT FEW FEW FEW FEW FEW FEW FEW FEW FEW SCT SCT SCT SCT
FltCat VFR VFR VFR VFR VFR VFR VFR VFR VFR VFR MVFR MVFR MVFR MVFR
WX -- -- -- -- -- -- HZ HZ HZ HZ FU FU FU FU
WDir 320 320 320 320 320 320 300 300 300 300 VRB VRB VRB VRB
WSpd 7 6 6 6 6 6 3 3 3 3 3 3 3 3
WGst -- -- -- -- -- -- -- -- -- -- -- -- -- --

Raw TAF
KPDX 200300Z 2003/2024 32006KT P6SM FEW080
  FM200900 30003KT 6SM HZ FEW080
  FM201300 VRB03KT 3SM FU SCT050
  FM201800 VRB03KT 2SM FU SCT035 BKN050


Raw METAR
KPDX 200253Z 32007KT 10SM FEW080 SCT250 26/14 A2995 RMK AO2 SLP140 FU FEW080 T02610144 53001
KPDX 200153Z 33009KT 9SM FEW080 SCT250 28/14 A2994 RMK AO2 SLP136 FU FEW080 T02780144
KPDX 200053Z 31011G15KT 9SM FEW080 SCT140 30/14 A2993 RMK AO2 SLP135 FU FEW080 T03000139

METAR Board
Radar Display
Forecast Discussion

FOR SITUATIONAL AWARENESS. NOT TO BE USED FOR FLIGHT PLANNING PURPOSES.